Terminal Aerodrome Forecast
Issued by NWS La Crosse, WI

Home | Current Version | Previous Version | Text Only | Print | Product List | Glossary On
Versions: 1 2 3 4 5 6 7 8 9 10 11 12 13 14 15 16 17 18 19 20 21 22 23 24 25 26
000
FTUS43 KARX 181515 AAB
TAFRST
TAF AMD
KRST 181515Z 1815/1912 19013KT 1 1/2SM BR OVC003
      TEMPO 1815/1816 1/2SM FZFG OVC002
     FM181630 21014KT P6SM SCT006
     FM190000 19011KT P6SM FEW200
     FM190900 18010KT 3SM BR SCT200=

USA.gov is the U.S. government's official web portal to all federal, state and local government web resources and services.